createdAt,value
2022-09-25T00:01:37.022Z,101994.94
2022-09-25T00:04:04.787Z,102006.09
2022-09-25T00:06:32.089Z,102017.28
2022-09-25T00:09:00.329Z,102023.69
2022-09-25T00:11:29.547Z,102037.59
2022-09-25T00:13:59.242Z,102049.91
2022-09-25T00:16:28.259Z,102060.34
2022-09-25T00:18:56.621Z,102064.31
2022-09-25T00:21:23.877Z,102071.44
2022-09-25T00:23:51.209Z,102081.03
2022-09-25T00:26:18.479Z,102090.72
2022-09-25T00:28:45.776Z,102093.50
2022-09-25T00:31:19.887Z,102106.63
2022-09-25T00:33:47.166Z,102119.84
2022-09-25T00:36:14.405Z,102128.66
2022-09-25T00:38:41.589Z,102129.84
2022-09-25T00:41:09.445Z,102144.97
2022-09-25T00:43:39.464Z,102145.41
2022-09-25T00:46:11.820Z,102161.31
2022-09-25T00:48:48.199Z,102165.38
2022-09-25T00:51:18.496Z,102176.00
2022-09-25T00:53:46.159Z,102191.25
2022-09-25T00:56:14.377Z,102197.63
2022-09-25T00:58:42.511Z,102203.97
2022-09-25T01:01:10.311Z,102216.75
2022-09-25T01:03:42.017Z,102222.34
2022-09-25T01:06:09.577Z,102231.16
2022-09-25T01:08:39.125Z,102230.41
2022-09-25T01:11:06.496Z,102235.19
2022-09-25T01:13:33.935Z,102246.78
2022-09-25T01:16:10.508Z,102262.69
2022-09-25T01:18:54.798Z,102260.72
2022-09-25T01:21:36.616Z,102263.09
2022-09-25T01:24:35.061Z,102269.13
2022-09-25T01:27:28.761Z,102252.75
2022-09-25T01:30:03.050Z,102253.09
2022-09-25T01:32:36.238Z,102254.75
2022-09-25T01:35:08.728Z,102247.94
2022-09-25T01:37:41.990Z,102239.16
2022-09-25T01:40:17.287Z,102251.53
2022-09-25T01:42:51.418Z,102253.09
2022-09-25T01:45:23.694Z,102257.50
2022-09-25T01:47:52.697Z,102259.06
2022-09-25T01:50:26.536Z,102263.06
2022-09-25T01:53:00.125Z,102267.84
2022-09-25T01:55:32.429Z,102269.78
2022-09-25T01:58:09.108Z,102279.41
2022-09-25T02:00:40.899Z,102290.56
2022-09-25T02:03:12.021Z,102301.75
2022-09-25T02:05:45.190Z,102307.75
2022-09-25T02:08:18.547Z,102314.53
2022-09-25T02:10:51.097Z,102330.13
2022-09-25T02:13:19.876Z,102333.31
2022-09-25T02:15:52.625Z,102357.25
2022-09-25T02:18:21.465Z,102368.44
2022-09-25T02:20:55.231Z,102379.59
2022-09-25T02:23:25.088Z,102398.69
2022-09-25T02:26:00.161Z,102409.03
2022-09-25T02:28:27.554Z,102401.16
2022-09-25T02:30:59.873Z,102397.94
2022-09-25T02:33:27.323Z,102391.59
2022-09-25T02:35:54.693Z,102383.59
2022-09-25T02:38:22.126Z,102369.97
2022-09-25T02:40:54.956Z,102338.81
2022-09-25T02:43:33.998Z,102310.88
2022-09-25T02:46:08.406Z,102274.88
2022-09-25T02:48:44.478Z,102247.72
2022-09-25T02:51:20.308Z,102202.97
2022-09-25T02:53:53.909Z,102171.78
2022-09-25T02:56:28.742Z,102143.81
2022-09-25T02:58:59.112Z,102122.25
2022-09-25T03:01:31.987Z,102098.31
2022-09-25T03:04:01.631Z,102083.09
2022-09-25T03:06:30.745Z,102076.63
2022-09-25T03:08:59.188Z,102066.19
2022-09-25T03:11:27.116Z,102051.72
2022-09-25T03:13:58.629Z,102029.03
2022-09-25T03:16:33.727Z,102013.91
2022-09-25T03:19:01.586Z,102012.31
2022-09-25T03:21:28.870Z,102021.06
2022-09-25T03:23:56.234Z,102009.53
2022-09-25T03:26:23.811Z,102009.16
2022-09-25T03:28:51.287Z,102014.41
2022-09-25T03:31:18.812Z,102020.81
2022-09-25T03:33:47.847Z,102023.94
2022-09-25T03:36:17.167Z,102018.41
2022-09-25T03:38:45.592Z,102016.88
2022-09-25T03:41:14.652Z,102016.09
2022-09-25T03:43:43.621Z,102020.88
2022-09-25T03:46:12.982Z,102011.72
2022-09-25T03:48:41.645Z,102012.06
2022-09-25T03:51:11.003Z,102013.78
2022-09-25T03:53:39.517Z,102015.00
2022-09-25T03:56:10.912Z,102011.84
2022-09-25T03:58:38.836Z,102013.03
2022-09-25T04:01:06.591Z,102022.66
2022-09-25T04:03:34.761Z,102016.69
2022-09-25T04:06:03.558Z,102018.75
2022-09-25T04:08:33.796Z,102024.06
2022-09-25T04:11:01.842Z,102026.59
2022-09-25T04:13:31.097Z,102036.22
2022-09-25T04:15:59.545Z,102040.72
2022-09-25T04:18:28.076Z,102049.53
2022-09-25T04:20:55.311Z,102062.78
2022-09-25T04:23:22.598Z,102074.81
2022-09-25T04:25:51.299Z,102097.97
2022-09-25T04:28:18.685Z,102123.88
2022-09-25T04:30:45.995Z,102129.59
2022-09-25T04:33:13.176Z,102137.22
2022-09-25T04:35:41.983Z,102156.44
2022-09-25T04:38:09.260Z,102183.94
2022-09-25T04:40:37.322Z,102209.56
2022-09-25T04:43:06.618Z,102222.28
2022-09-25T04:45:35.622Z,102242.22
2022-09-25T04:48:04.001Z,102263.44
2022-09-25T04:50:32.252Z,102282.22
2022-09-25T04:53:02.559Z,102305.38
2022-09-25T04:55:29.818Z,102322.88
2022-09-25T04:57:59.719Z,102346.03
2022-09-25T05:00:30.689Z,102372.44
2022-09-25T05:02:58.471Z,102397.19
2022-09-25T05:05:25.796Z,102423.91
2022-09-25T05:07:54.298Z,102439.50
2022-09-25T05:10:21.857Z,102465.81
2022-09-25T05:12:54.055Z,102494.91
2022-09-25T05:15:21.261Z,102516.88
2022-09-25T05:17:49.925Z,102532.06
2022-09-25T05:20:17.164Z,102551.22
2022-09-25T05:22:44.484Z,102581.94
2022-09-25T05:25:11.711Z,102603.88
2022-09-25T05:27:38.973Z,102615.06
2022-09-25T05:30:07.958Z,102649.38
2022-09-25T05:32:35.401Z,102672.88
2022-09-25T05:35:05.033Z,102716.38
2022-09-25T05:37:33.119Z,102737.09
2022-09-25T05:40:00.366Z,102761.81
2022-09-25T05:42:30.313Z,102780.97
2022-09-25T05:44:57.533Z,102800.91
2022-09-25T05:47:24.789Z,102826.41
2022-09-25T05:49:52.078Z,102837.56
2022-09-25T05:52:20.702Z,102862.31
2022-09-25T05:54:48.034Z,102884.66
2022-09-25T05:57:15.213Z,102899.00
2022-09-25T05:59:42.434Z,102916.59
2022-09-25T06:02:11.074Z,102935.34
2022-09-25T06:04:38.340Z,102949.31
2022-09-25T06:07:05.585Z,102962.88
2022-09-25T06:09:34.108Z,102962.09
2022-09-25T06:12:01.805Z,102970.44
2022-09-25T06:14:29.007Z,102990.00
2022-09-25T06:16:56.257Z,102990.78
2022-09-25T06:19:23.504Z,103002.72
2022-09-25T06:21:50.741Z,103001.91
2022-09-25T06:24:18.029Z,103015.09
2022-09-25T06:26:46.742Z,103021.06
2022-09-25T06:29:14.024Z,103026.66
2022-09-25T06:31:41.375Z,103046.56
2022-09-25T06:34:08.746Z,103047.75
2022-09-25T06:36:36.004Z,103052.91
2022-09-25T06:39:03.523Z,103068.13
2022-09-25T06:41:30.770Z,103078.53
2022-09-25T06:43:59.409Z,103075.31
2022-09-25T06:46:26.704Z,103097.63
2022-09-25T06:48:55.099Z,103089.66
2022-09-25T06:51:23.151Z,103080.09
2022-09-25T06:53:52.355Z,103094.50
2022-09-25T06:56:20.141Z,103092.91
2022-09-25T06:58:47.427Z,103104.09
2022-09-25T07:01:16.638Z,103111.25
2022-09-25T07:03:43.865Z,103099.31
2022-09-25T07:06:12.745Z,103104.94
2022-09-25T07:08:40.678Z,103111.78
2022-09-25T07:11:07.965Z,103102.59
2022-09-25T07:13:36.103Z,103110.59
2022-09-25T07:16:05.869Z,103090.69
2022-09-25T07:18:35.017Z,103078.75
2022-09-25T07:21:04.629Z,103050.78
2022-09-25T07:23:31.989Z,103030.47
2022-09-25T07:26:05.436Z,103003.69
2022-09-25T07:28:32.804Z,102998.91
2022-09-25T07:31:09.305Z,102958.16
2022-09-25T07:33:37.945Z,102916.19
2022-09-25T07:36:05.535Z,102865.38
2022-09-25T07:38:33.104Z,102799.78
2022-09-25T07:41:00.317Z,102722.50
2022-09-25T07:43:27.514Z,102642.84
2022-09-25T07:45:54.737Z,102546.84
2022-09-25T07:48:22.024Z,102456.41
2022-09-25T07:50:50.665Z,102393.75
2022-09-25T07:53:18.200Z,102342.41
2022-09-25T07:55:45.605Z,102297.44
2022-09-25T07:58:13.234Z,102253.78
2022-09-25T08:00:40.526Z,102206.16
2022-09-25T08:03:09.527Z,102155.44
2022-09-25T08:05:37.139Z,102091.22
2022-09-25T08:08:05.850Z,102017.53
2022-09-25T08:10:33.096Z,101942.44
2022-09-25T08:13:00.373Z,101906.47
2022-09-25T08:15:27.739Z,101847.44
2022-09-25T08:17:55.035Z,101787.31
2022-09-25T08:20:22.192Z,101734.81
2022-09-25T08:22:53.396Z,101687.91
2022-09-25T08:25:22.178Z,101639.03
2022-09-25T08:27:49.373Z,101592.84
2022-09-25T08:30:16.594Z,101546.38
2022-09-25T08:32:43.838Z,101515.06
2022-09-25T08:35:11.020Z,101481.16
2022-09-25T08:37:40.912Z,101451.28
2022-09-25T08:40:16.836Z,101420.16
2022-09-25T08:42:48.465Z,101402.13
2022-09-25T08:45:26.004Z,101381.47
2022-09-25T08:47:55.252Z,101373.19
2022-09-25T08:50:25.026Z,101363.06
2022-09-25T08:52:57.262Z,101373.31
2022-09-25T08:55:28.219Z,101370.38
2022-09-25T08:57:56.848Z,101358.28
2022-09-25T09:00:24.414Z,101355.06
2022-09-25T09:02:54.191Z,101352.19
2022-09-25T09:05:26.234Z,101354.59
2022-09-25T09:07:57.585Z,101351.84
2022-09-25T09:10:32.139Z,101348.56
2022-09-25T09:13:14.235Z,101347.16
2022-09-25T09:15:47.028Z,101337.72
2022-09-25T09:18:21.996Z,101339.97
2022-09-25T09:20:53.031Z,101340.47
2022-09-25T09:23:22.650Z,101342.44
2022-09-25T09:25:59.464Z,101338.81
2022-09-25T09:29:01.589Z,101340.22
2022-09-25T09:31:37.431Z,101335.41
2022-09-25T09:34:40.883Z,101337.75
2022-09-25T09:37:18.837Z,101334.00
2022-09-25T09:40:01.300Z,101335.69
2022-09-25T09:42:46.172Z,101335.09
2022-09-25T09:45:22.679Z,101327.28
2022-09-25T09:47:59.030Z,101317.75
2022-09-25T09:50:38.988Z,101328.91
2022-09-25T09:53:23.057Z,101328.69
2022-09-25T09:55:53.962Z,101312.84
2022-09-25T09:58:26.902Z,101314.22
2022-09-25T10:00:55.970Z,101312.41
2022-09-25T10:03:27.637Z,101310.78
2022-09-25T10:05:58.778Z,101318.56
2022-09-25T10:08:26.136Z,101305.38
2022-09-25T10:10:54.291Z,101312.75
2022-09-25T10:13:25.019Z,101302.31
2022-09-25T10:15:57.989Z,101299.81
2022-09-25T10:18:30.869Z,101298.84
2022-09-25T10:21:04.008Z,101299.28
2022-09-25T10:23:37.672Z,101289.84
2022-09-25T10:26:23.629Z,101292.47
2022-09-25T10:28:51.366Z,101292.06
2022-09-25T10:31:20.682Z,101286.88
2022-09-25T10:34:00.342Z,101285.63
2022-09-25T10:36:41.524Z,101294.97
2022-09-25T10:39:43.500Z,101292.09
2022-09-25T10:42:37.704Z,101288.47
2022-09-25T10:45:29.494Z,101294.41
2022-09-25T10:47:58.542Z,101298.03
2022-09-25T10:50:26.518Z,101305.41
2022-09-25T10:52:55.606Z,101298.72
2022-09-25T10:55:25.784Z,101293.03
2022-09-25T10:57:58.518Z,101292.84
2022-09-25T11:00:26.809Z,101280.75
2022-09-25T11:02:57.613Z,101305.31
2022-09-25T11:05:28.990Z,101305.94
2022-09-25T11:07:59.353Z,101310.91
2022-09-25T11:10:29.175Z,101311.72
2022-09-25T11:12:58.009Z,101318.69
2022-09-25T11:15:27.104Z,101322.72
2022-09-25T11:17:56.527Z,101322.88
2022-09-25T11:20:28.738Z,101331.19
2022-09-25T11:23:22.003Z,101324.59
2022-09-25T11:25:56.992Z,101328.66
2022-09-25T11:28:31.745Z,101327.34
2022-09-25T11:31:04.177Z,101334.22
2022-09-25T11:33:43.319Z,101331.06
2022-09-25T11:36:17.361Z,101339.09
2022-09-25T11:38:47.465Z,101333.47
2022-09-25T11:41:21.283Z,101340.69
2022-09-25T11:44:05.859Z,101336.34
2022-09-25T11:46:41.586Z,101342.81
2022-09-25T11:49:19.942Z,101330.22
2022-09-25T11:52:15.659Z,101335.56
2022-09-25T11:54:54.046Z,101324.91
2022-09-25T11:57:34.449Z,101318.91
2022-09-25T12:00:08.073Z,101326.66
2022-09-25T12:02:49.339Z,101317.66
2022-09-25T12:05:50.703Z,101306.19
2022-09-25T12:08:31.420Z,101295.59
2022-09-25T12:11:16.025Z,101292.19
2022-09-25T12:13:52.287Z,101282.81
2022-09-25T12:16:23.533Z,101276.41
2022-09-25T12:19:04.644Z,101279.28
2022-09-25T12:21:39.707Z,101277.63
2022-09-25T12:24:21.557Z,101272.91
2022-09-25T12:26:56.470Z,101271.41
2022-09-25T12:29:37.724Z,101262.59
2022-09-25T12:32:17.007Z,101250.28
2022-09-25T12:34:58.866Z,101248.38
2022-09-25T12:37:33.753Z,101245.28
2022-09-25T12:40:10.462Z,101250.81
2022-09-25T12:42:43.078Z,101243.00
2022-09-25T12:45:18.400Z,101249.84
2022-09-25T12:47:57.606Z,101251.19
2022-09-25T12:50:27.456Z,101246.53
2022-09-25T12:52:59.246Z,101242.47
2022-09-25T12:55:34.853Z,101246.88
2022-09-25T12:58:11.973Z,101249.06
2022-09-25T13:00:43.314Z,101239.53
2022-09-25T13:03:15.477Z,101243.91
2022-09-25T13:05:48.517Z,101237.19
2022-09-25T13:08:22.194Z,101236.25
2022-09-25T13:10:55.669Z,101237.19
2022-09-25T13:13:26.780Z,101238.28
2022-09-25T13:15:56.614Z,101227.78
2022-09-25T13:18:25.870Z,101232.81
2022-09-25T13:20:54.807Z,101230.00
2022-09-25T13:23:35.421Z,101232.13
2022-09-25T13:26:11.867Z,101222.13
2022-09-25T13:28:47.377Z,101217.75
2022-09-25T13:31:23.758Z,101216.84
2022-09-25T13:33:53.588Z,101207.00
2022-09-25T13:36:41.794Z,101216.63
2022-09-25T13:39:20.729Z,101217.66
2022-09-25T13:41:56.484Z,101207.53
2022-09-25T13:44:56.832Z,101218.44
2022-09-25T13:48:00.600Z,101206.72
2022-09-25T13:50:41.353Z,101216.09
2022-09-25T13:53:20.119Z,101223.03
2022-09-25T13:56:19.939Z,101209.44
2022-09-25T13:59:20.224Z,101204.53
2022-09-25T14:01:49.813Z,101207.47
2022-09-25T14:04:31.333Z,101208.66
2022-09-25T14:07:11.158Z,101203.28
2022-09-25T14:09:43.821Z,101209.94
2022-09-25T14:12:20.947Z,101199.41
2022-09-25T14:14:53.290Z,101195.78
2022-09-25T14:17:23.701Z,101188.78
2022-09-25T14:19:53.810Z,101190.88
2022-09-25T14:22:29.665Z,101193.34
2022-09-25T14:24:56.870Z,101191.28
2022-09-25T14:27:26.548Z,101175.56
2022-09-25T14:30:06.659Z,101170.97
2022-09-25T14:32:56.417Z,101169.81
2022-09-25T14:35:39.480Z,101169.88
2022-09-25T14:38:29.857Z,101181.50
2022-09-25T14:41:11.995Z,101167.25
2022-09-25T14:43:52.471Z,101164.78
2022-09-25T14:46:22.835Z,101161.78
2022-09-25T14:48:54.729Z,101161.59
2022-09-25T14:51:25.577Z,101153.56
2022-09-25T14:53:57.813Z,101167.91
2022-09-25T14:56:26.392Z,101156.94
2022-09-25T14:58:58.023Z,101158.22
2022-09-25T15:01:29.219Z,101148.28
2022-09-25T15:03:59.990Z,101141.00
2022-09-25T15:06:29.545Z,101140.81
2022-09-25T15:08:57.377Z,101139.81
2022-09-25T15:11:26.417Z,101141.69
2022-09-25T15:13:53.889Z,101141.97
2022-09-25T15:16:23.613Z,101144.75
2022-09-25T15:18:55.743Z,101145.09
2022-09-25T15:21:26.471Z,101156.78
2022-09-25T15:23:57.288Z,101144.97
2022-09-25T15:26:34.223Z,101146.75
2022-09-25T15:29:04.263Z,101140.38
2022-09-25T15:31:36.503Z,101133.16
2022-09-25T15:34:12.072Z,101132.69
2022-09-25T15:36:40.010Z,101122.34
2022-09-25T15:39:14.389Z,101127.88
2022-09-25T15:41:50.138Z,101125.94
2022-09-25T15:44:20.359Z,101128.50
2022-09-25T15:46:51.644Z,101123.56
2022-09-25T15:49:27.333Z,101130.47
2022-09-25T15:52:03.335Z,101138.28
2022-09-25T15:54:37.382Z,101139.44
2022-09-25T15:57:10.620Z,101138.25
2022-09-25T15:59:41.415Z,101140.34
2022-09-25T16:02:21.020Z,101144.81
2022-09-25T16:04:52.644Z,101131.91
2022-09-25T16:07:32.056Z,101136.63
2022-09-25T16:10:27.394Z,101139.09
2022-09-25T16:12:55.022Z,101145.78
2022-09-25T16:15:47.190Z,101145.34
2022-09-25T16:18:37.491Z,101135.81
2022-09-25T16:21:30.716Z,101134.91
2022-09-25T16:24:03.815Z,101143.66
2022-09-25T16:26:37.792Z,101137.84
2022-09-25T16:29:15.420Z,101139.38
2022-09-25T16:31:44.840Z,101141.06
2022-09-25T16:34:19.688Z,101141.06
2022-09-25T16:36:48.485Z,101144.00
2022-09-25T16:39:25.717Z,101152.69
2022-09-25T16:41:53.339Z,101143.81
2022-09-25T16:44:22.736Z,101150.16
2022-09-25T16:47:06.514Z,101151.06
2022-09-25T16:49:34.672Z,101150.28
2022-09-25T16:52:06.946Z,101146.88
2022-09-25T16:54:37.100Z,101156.69
2022-09-25T16:57:04.373Z,101143.47
2022-09-25T16:59:31.695Z,101143.75
2022-09-25T17:02:01.809Z,101152.91
2022-09-25T17:04:30.896Z,101148.03
2022-09-25T17:06:58.455Z,101152.84
2022-09-25T17:09:29.500Z,101145.03
2022-09-25T17:12:00.627Z,101145.31
2022-09-25T17:14:28.324Z,101146.50
2022-09-25T17:16:56.815Z,101145.66
2022-09-25T17:19:24.311Z,101149.56
2022-09-25T17:21:53.486Z,101142.22
2022-09-25T17:24:22.937Z,101151.06
2022-09-25T17:26:51.935Z,101140.06
2022-09-25T17:29:20.655Z,101143.78
2022-09-25T17:31:49.460Z,101143.66
2022-09-25T17:34:22.338Z,101136.53
2022-09-25T17:36:50.232Z,101136.59
2022-09-25T17:39:18.668Z,101141.59
2022-09-25T17:41:47.364Z,101136.56
2022-09-25T17:44:18.459Z,101144.50
2022-09-25T17:46:45.824Z,101143.66
2022-09-25T17:49:13.180Z,101136.94
2022-09-25T17:51:40.831Z,101135.13
2022-09-25T17:54:09.689Z,101137.97
2022-09-25T17:56:36.924Z,101133.31
2022-09-25T17:59:04.404Z,101133.28
2022-09-25T18:01:39.167Z,101123.09
2022-09-25T18:04:19.500Z,101123.78
2022-09-25T18:06:47.389Z,101124.66
2022-09-25T18:09:14.731Z,101119.59
2022-09-25T18:11:42.074Z,101125.28
2022-09-25T18:14:10.694Z,101122.94
2022-09-25T18:16:41.270Z,101126.41
2022-09-25T18:19:15.275Z,101116.38
2022-09-25T18:21:42.778Z,101122.53
2022-09-25T18:24:09.974Z,101111.00
2022-09-25T18:26:37.604Z,101115.81
2022-09-25T18:29:05.570Z,101113.78
2022-09-25T18:31:33.599Z,101111.91
2022-09-25T18:34:02.259Z,101113.94
2022-09-25T18:36:29.561Z,101106.19
2022-09-25T18:38:56.759Z,101111.03
2022-09-25T18:41:24.156Z,101111.25
2022-09-25T18:43:51.327Z,101104.88
2022-09-25T18:46:18.563Z,101106.88
2022-09-25T18:48:45.891Z,101098.47
2022-09-25T18:51:14.900Z,101087.66
2022-09-25T18:53:42.186Z,101088.88
2022-09-25T18:56:09.421Z,101082.50
2022-09-25T18:58:36.655Z,101075.81
2022-09-25T19:01:06.296Z,101077.13
2022-09-25T19:03:37.154Z,101076.78
2022-09-25T19:06:07.985Z,101066.28
2022-09-25T19:08:36.562Z,101068.50
2022-09-25T19:11:12.108Z,101060.34
2022-09-25T19:13:40.048Z,101066.06
2022-09-25T19:16:07.868Z,101055.53
2022-09-25T19:18:35.262Z,101052.16
2022-09-25T19:21:02.584Z,101048.25
2022-09-25T19:23:33.484Z,101042.03
2022-09-25T19:26:04.325Z,101036.75
2022-09-25T19:28:33.130Z,101036.63
2022-09-25T19:31:01.880Z,101034.28
2022-09-25T19:33:31.550Z,101042.91
2022-09-25T19:35:59.910Z,101043.88
2022-09-25T19:38:30.905Z,101047.59
2022-09-25T19:40:58.472Z,101055.41
2022-09-25T19:43:27.126Z,101050.72
2022-09-25T19:45:56.049Z,101055.19
2022-09-25T19:48:23.960Z,101052.50
2022-09-25T19:50:51.225Z,101057.94
2022-09-25T19:53:18.678Z,101054.16
2022-09-25T19:55:50.519Z,101054.94
2022-09-25T19:58:21.169Z,101066.09
2022-09-25T20:00:52.007Z,101060.78
2022-09-25T20:03:19.255Z,101058.00
2022-09-25T20:05:46.564Z,101060.22
2022-09-25T20:08:13.826Z,101066.56
2022-09-25T20:10:41.452Z,101070.50
2022-09-25T20:13:08.781Z,101075.59
2022-09-25T20:15:36.295Z,101078.16
2022-09-25T20:18:05.458Z,101083.44
2022-09-25T20:20:32.624Z,101096.03
2022-09-25T20:22:59.912Z,101107.72
2022-09-25T20:25:27.116Z,101119.88
2022-09-25T20:27:54.682Z,101133.94
2022-09-25T20:30:22.770Z,101144.72
2022-09-25T20:32:50.196Z,101154.88
2022-09-25T20:35:19.462Z,101147.69
2022-09-25T20:37:46.841Z,101165.50
2022-09-25T20:40:14.274Z,101178.38
2022-09-25T20:42:41.530Z,101180.47
2022-09-25T20:45:09.672Z,101181.53
2022-09-25T20:47:37.086Z,101187.28
2022-09-25T20:50:04.925Z,101199.66
2022-09-25T20:52:33.691Z,101203.31
2022-09-25T20:55:00.999Z,101203.91
2022-09-25T20:57:31.049Z,101208.53
2022-09-25T20:59:58.329Z,101214.38
2022-09-25T21:02:25.627Z,101224.16
2022-09-25T21:04:52.967Z,101227.25
2022-09-25T21:07:20.256Z,101230.31
2022-09-25T21:09:48.995Z,101233.75
2022-09-25T21:12:16.267Z,101232.13
2022-09-25T21:14:43.727Z,101234.41
2022-09-25T21:17:11.022Z,101233.69
2022-09-25T21:19:38.403Z,101236.97
2022-09-25T21:22:05.747Z,101231.06
2022-09-25T21:24:33.036Z,101225.59
2022-09-25T21:27:01.701Z,101228.25
2022-09-25T21:29:28.960Z,101221.91
2022-09-25T21:31:56.305Z,101219.03
2022-09-25T21:34:23.632Z,101208.31
2022-09-25T21:36:50.910Z,101208.81
2022-09-25T21:39:20.853Z,101207.59
2022-09-25T21:41:49.183Z,101199.00
2022-09-25T21:44:19.438Z,101194.53
2022-09-25T21:46:46.798Z,101192.69
2022-09-25T21:49:16.496Z,101191.06
2022-09-25T21:51:45.163Z,101195.13
2022-09-25T21:54:13.085Z,101184.13
2022-09-25T21:56:40.673Z,101184.06
2022-09-25T21:59:09.290Z,101184.94
2022-09-25T22:01:39.122Z,101178.63
2022-09-25T22:04:08.475Z,101176.72
2022-09-25T22:06:37.713Z,101177.53
2022-09-25T22:09:07.121Z,101169.59
2022-09-25T22:11:35.078Z,101169.59
2022-09-25T22:14:02.355Z,101170.78
2022-09-25T22:16:32.247Z,101168.72
2022-09-25T22:19:05.976Z,101178.78
2022-09-25T22:21:35.068Z,101170.94
2022-09-25T22:24:02.772Z,101175.75
2022-09-25T22:26:30.766Z,101164.19
2022-09-25T22:28:57.933Z,101168.38
2022-09-25T22:31:27.153Z,101158.78
2022-09-25T22:33:56.382Z,101149.75
2022-09-25T22:36:25.338Z,101143.50
2022-09-25T22:38:52.927Z,101141.06
2022-09-25T22:41:20.728Z,101148.03
2022-09-25T22:43:50.658Z,101136.53
2022-09-25T22:46:18.826Z,101125.72
2022-09-25T22:48:46.248Z,101126.09
2022-09-25T22:51:15.308Z,101111.00
2022-09-25T22:53:44.270Z,101103.44
2022-09-25T22:56:14.322Z,101105.34
2022-09-25T22:58:42.402Z,101097.34
2022-09-25T23:01:11.843Z,101081.13
2022-09-25T23:03:39.225Z,101067.91
2022-09-25T23:06:06.894Z,101068.44
2022-09-25T23:08:34.204Z,101059.88
2022-09-25T23:11:07.636Z,101048.41
2022-09-25T23:13:36.054Z,101043.16
2022-09-25T23:16:07.740Z,101038.28
2022-09-25T23:18:36.450Z,101028.34
2022-09-25T23:21:04.362Z,101027.47
2022-09-25T23:23:32.089Z,101022.00
2022-09-25T23:26:03.600Z,101015.63
2022-09-25T23:28:32.478Z,101013.00
2022-09-25T23:31:05.846Z,101002.41
2022-09-25T23:33:33.959Z,101002.13
2022-09-25T23:36:05.661Z,100994.56
2022-09-25T23:38:33.641Z,100985.63
2022-09-25T23:41:01.159Z,100982.84
2022-09-25T23:43:29.822Z,100978.47
2022-09-25T23:45:57.069Z,100972.09
2022-09-25T23:48:24.489Z,100974.88
2022-09-25T23:50:51.706Z,100965.41
2022-09-25T23:53:19.117Z,100955.38
2022-09-25T23:55:46.326Z,100954.28
2022-09-25T23:58:13.533Z,100944.78
